Time;durP1;ratioP1;P1;durP2;ratioP2;P2;SDS_P1;SDS_P2;PMS_P1;PMS_P2;Temp;Humidity;BMP_temperature;BMP_pressure;BME280_temperature;BME280_humidity;BME280_pressure;Samples;Min_cycle;Max_cycle;Signal;HPM_P1;HPM_P2
2021/07/11 00:00:48;;;;;;;3.40;3.10;;;30.30;58.80;;;;;;5144412;27;20465;-25
2021/07/11 00:03:19;;;;;;;2.90;2.70;;;30.40;59.80;;;;;;5144072;27;20509;-25
2021/07/11 00:05:50;;;;;;;3.13;2.93;;;30.30;59.40;;;;;;5144045;27;20492;-25
2021/07/11 00:08:21;;;;;;;4.13;2.73;;;30.30;58.60;;;;;;5143844;27;20866;-30
2021/07/11 00:10:55;;;;;;;2.90;2.70;;;30.20;57.40;;;;;;5144324;27;21001;-28
2021/07/11 00:13:26;;;;;;;4.03;3.40;;;30.10;58.10;;;;;;5143564;27;20429;-25
2021/07/11 00:15:57;;;;;;;4.70;4.30;;;30.00;58.00;;;;;;5144973;27;20458;-25
2021/07/11 00:18:31;;;;;;;3.43;3.23;;;30.00;59.00;;;;;;5143953;27;20513;-30
2021/07/11 00:21:02;;;;;;;3.77;3.47;;;29.80;59.60;;;;;;5144116;27;20525;-29
2021/07/11 00:23:33;;;;;;;5.00;3.10;;;29.80;60.60;;;;;;5143888;27;20455;-28
2021/07/11 00:26:06;;;;;;;3.37;2.80;;;29.90;59.60;;;;;;5123360;28;20868;-29
2021/07/11 00:28:37;;;;;;;2.97;2.77;;;29.70;59.00;;;;;;5122791;28;20807;-26
2021/07/11 00:31:08;;;;;;;3.40;2.90;;;29.50;60.00;;;;;;5123426;28;20486;-26
2021/07/11 00:33:39;;;;;;;2.97;2.77;;;29.40;59.60;;;;;;5123285;28;20478;-26
2021/07/11 00:36:10;;;;;;;3.63;3.33;;;29.40;59.50;;;;;;5123299;28;20894;-25
2021/07/11 00:38:41;;;;;;;2.87;2.67;;;29.30;60.70;;;;;;5141125;27;20497;-27
2021/07/11 00:41:13;;;;;;;3.30;3.10;;;29.20;59.20;;;;;;5144277;28;20456;-27
2021/07/11 00:43:44;;;;;;;3.60;2.97;;;29.00;59.30;;;;;;5142717;28;20433;-26
2021/07/11 00:46:16;;;;;;;4.30;3.37;;;28.90;60.30;;;;;;5144220;28;20476;-28
2021/07/11 00:48:47;;;;;;;3.37;3.07;;;28.80;61.40;;;;;;5143792;27;20452;-26
2021/07/11 00:51:18;;;;;;;3.40;3.20;;;28.90;61.50;;;;;;5143760;28;20596;-30
2021/07/11 00:53:53;;;;;;;3.10;2.90;;;28.80;61.00;;;;;;5143484;27;20470;-30
2021/07/11 00:56:31;;;;;;;3.80;3.50;;;28.70;61.40;;;;;;5144093;27;20443;-29
2021/07/11 00:59:02;;;;;;;3.30;3.00;;;28.80;63.10;;;;;;5140362;27;20476;-29
2021/07/11 01:01:38;;;;;;;2.93;2.73;;;28.80;59.30;;;;;;5135710;28;20468;-28
2021/07/11 01:04:14;;;;;;;3.50;3.20;;;28.60;59.70;;;;;;5143313;27;20447;-26
2021/07/11 01:06:52;;;;;;;3.30;3.03;;;28.60;61.10;;;;;;5143830;27;21212;-26
2021/07/11 01:09:29;;;;;;;3.30;3.03;;;28.60;60.90;;;;;;5143641;28;20484;-25
2021/07/11 01:12:05;;;;;;;3.30;3.00;;;28.60;60.80;;;;;;5143708;27;20563;-28
2021/07/11 01:14:37;;;;;;;2.90;2.70;;;28.50;60.30;;;;;;5142998;27;20475;-26
2021/07/11 01:17:10;;;;;;;3.07;2.37;;;28.50;61.10;;;;;;5143149;27;20447;-29
2021/07/11 01:19:57;;;;;;;2.83;2.63;;;28.40;60.00;;;;;;5143521;27;20420;-27
2021/07/11 01:22:37;;;;;;;3.03;2.80;;;28.40;60.70;;;;;;5143662;28;20543;-25
2021/07/11 01:25:12;;;;;;;3.30;3.10;;;28.10;61.40;;;;;;5143759;28;20451;-28
2021/07/11 01:27:44;;;;;;;3.43;3.20;;;28.00;62.40;;;;;;5142826;27;20451;-29
2021/07/11 01:30:16;;;;;;;3.47;3.27;;;28.00;62.90;;;;;;5143735;27;20449;-25
2021/07/11 01:32:48;;;;;;;3.33;3.10;;;27.90;62.00;;;;;;5143181;27;20489;-27
2021/07/11 01:35:19;;;;;;;3.37;3.00;;;27.90;62.00;;;;;;5143383;28;20449;-25
2021/07/11 01:37:53;;;;;;;3.60;3.37;;;27.80;62.50;;;;;;5143517;27;20535;-26
2021/07/11 01:40:27;;;;;;;3.20;3.00;;;27.80;63.30;;;;;;5143467;27;20927;-24
2021/07/11 01:43:00;;;;;;;3.67;3.47;;;27.70;63.20;;;;;;5142195;28;20457;-25
2021/07/11 01:45:31;;;;;;;2.93;2.73;;;27.70;64.00;;;;;;5143113;27;20549;-25
2021/07/11 01:48:03;;;;;;;3.50;3.20;;;27.70;62.50;;;;;;5146360;27;20472;-25
2021/07/11 01:50:37;;;;;;;3.87;3.27;;;27.70;64.10;;;;;;5147099;27;20429;-29
2021/07/11 01:53:08;;;;;;;3.70;3.40;;;27.50;64.70;;;;;;5146605;27;20472;-26
2021/07/11 01:55:40;;;;;;;3.57;2.80;;;27.40;65.20;;;;;;5147048;27;20445;-27
2021/07/11 01:58:12;;;;;;;3.50;3.20;;;27.40;65.70;;;;;;5146031;27;20464;-26
2021/07/11 02:00:43;;;;;;;4.53;3.30;;;27.30;66.00;;;;;;5146736;27;20475;-26
2021/07/11 02:03:18;;;;;;;3.30;3.10;;;27.20;66.70;;;;;;5146489;27;20453;-28
2021/07/11 02:05:50;;;;;;;3.23;3.03;;;27.10;66.90;;;;;;5146767;27;20429;-25
2021/07/11 02:08:22;;;;;;;3.73;3.47;;;27.00;68.10;;;;;;5146800;27;20770;-25
2021/07/11 02:10:54;;;;;;;5.23;4.90;;;26.90;68.80;;;;;;5146711;27;20456;-26
2021/07/11 02:13:30;;;;;;;7.23;6.73;;;26.90;68.10;;;;;;5145521;27;20453;-29
2021/07/11 02:16:08;;;;;;;410.80;357.63;;;26.90;68.50;;;;;;5146879;27;20471;-24
2021/07/11 02:18:41;;;;;;;8.73;8.13;;;26.80;67.20;;;;;;5146569;27;20923;-29
2021/07/11 02:21:12;;;;;;;3.87;3.57;;;26.90;67.10;;;;;;5146985;27;20449;-28
2021/07/11 02:23:44;;;;;;;3.37;3.13;;;26.80;68.60;;;;;;5146847;27;20437;-27
2021/07/11 02:26:16;;;;;;;3.57;3.27;;;26.70;68.90;;;;;;5146385;27;20444;-26
2021/07/11 02:28:51;;;;;;;4.00;3.70;;;26.70;69.50;;;;;;5145021;27;20471;-28
2021/07/11 02:31:26;;;;;;;2.77;2.57;;;26.60;70.50;;;;;;5146056;27;20475;-25
2021/07/11 02:34:01;;;;;;;3.60;3.30;;;26.50;71.40;;;;;;5146158;27;20516;-27
2021/07/11 02:36:33;;;;;;;3.73;3.43;;;26.40;71.30;;;;;;5146346;27;20463;-28
2021/07/11 02:39:08;;;;;;;3.70;3.40;;;26.30;71.40;;;;;;5146269;27;20417;-27
2021/07/11 02:41:43;;;;;;;3.73;3.50;;;26.30;72.80;;;;;;5146164;27;20447;-24
2021/07/11 02:44:17;;;;;;;3.20;2.60;;;26.20;72.60;;;;;;5144645;27;20468;-26
2021/07/11 02:46:51;;;;;;;5.60;3.73;;;26.10;72.30;;;;;;5129960;27;20524;-26
2021/07/11 02:49:26;;;;;;;2.93;2.73;;;26.00;73.00;;;;;;5143942;27;20476;-27
2021/07/11 02:51:59;;;;;;;3.30;3.10;;;25.90;73.10;;;;;;5145445;27;20480;-24
2021/07/11 02:54:36;;;;;;;2.80;2.60;;;25.90;73.50;;;;;;5145375;27;20517;-28
2021/07/11 02:57:09;;;;;;;3.00;2.80;;;25.80;74.40;;;;;;5145900;27;20490;-27
2021/07/11 02:59:42;;;;;;;3.40;3.10;;;25.70;73.90;;;;;;5144108;27;20455;-26
2021/07/11 03:02:14;;;;;;;2.67;2.47;;;25.70;74.50;;;;;;5145115;27;20541;-27
2021/07/11 03:04:46;;;;;;;3.13;2.70;;;25.60;74.80;;;;;;5148596;27;20497;-25
2021/07/11 03:07:18;;;;;;;3.10;2.90;;;25.50;75.00;;;;;;5145662;27;20469;-26
2021/07/11 03:09:49;;;;;;;3.43;3.13;;;25.40;74.70;;;;;;5145757;27;20761;-29
2021/07/11 03:12:21;;;;;;;7.23;6.73;;;25.30;75.30;;;;;;5145829;27;20533;-26
2021/07/11 03:14:54;;;;;;;3.30;2.70;;;25.20;75.70;;;;;;5145530;27;20445;-25
2021/07/11 03:17:28;;;;;;;2.70;2.50;;;25.00;76.30;;;;;;5146207;27;20944;-25
2021/07/11 03:20:00;;;;;;;3.50;2.97;;;24.90;76.80;;;;;;5145668;27;20447;-30
2021/07/11 03:22:33;;;;;;;3.20;3.00;;;24.90;76.60;;;;;;5145172;27;20543;-29
2021/07/11 03:25:07;;;;;;;3.17;2.97;;;24.70;77.40;;;;;;5145238;27;20433;-25
2021/07/11 03:27:39;;;;;;;4.33;3.17;;;24.60;78.00;;;;;;5144804;27;20428;-25
2021/07/11 03:30:16;;;;;;;2.80;2.60;;;24.50;78.30;;;;;;5145027;27;20452;-26
2021/07/11 03:32:51;;;;;;;3.17;2.73;;;24.40;79.00;;;;;;5144843;27;20847;-27
2021/07/11 03:35:29;;;;;;;3.87;3.10;;;24.20;79.60;;;;;;5144734;27;20526;-28
2021/07/11 03:38:01;;;;;;;3.40;3.10;;;24.10;80.20;;;;;;5144685;27;20484;-25
2021/07/11 03:40:35;;;;;;;3.57;2.90;;;24.00;80.20;;;;;;5145202;27;20449;-26
2021/07/11 03:43:09;;;;;;;2.87;2.67;;;23.90;80.50;;;;;;5143636;27;20449;-26
2021/07/11 03:46:03;;;;;;;3.20;3.00;;;23.70;81.40;;;;;;5144909;27;20467;-28
2021/07/11 03:48:40;;;;;;;3.93;2.97;;;23.60;82.10;;;;;;5144730;27;20471;-27
2021/07/11 03:51:12;;;;;;;3.00;2.70;;;23.50;82.70;;;;;;5144193;27;20452;-25
2021/07/11 03:53:44;;;;;;;2.90;2.70;;;23.40;82.60;;;;;;5143605;27;20969;-29
2021/07/11 03:56:16;;;;;;;3.53;3.20;;;23.30;83.30;;;;;;5144850;27;20441;-24
2021/07/11 03:58:48;;;;;;;3.40;3.10;;;23.20;83.60;;;;;;5143509;27;20484;-25
2021/07/11 04:01:25;;;;;;;4.77;2.53;;;23.10;84.40;;;;;;5144778;27;20433;-31
2021/07/11 04:03:57;;;;;;;7.13;3.00;;;23.00;85.40;;;;;;5144414;27;20437;-28
2021/07/11 04:06:31;;;;;;;5.73;2.87;;;23.00;85.40;;;;;;5144699;27;20448;-25
2021/07/11 04:09:06;;;;;;;2.67;2.47;;;22.80;86.40;;;;;;5144434;27;20423;-28
2021/07/11 04:11:37;;;;;;;2.87;2.67;;;22.70;87.10;;;;;;5144043;27;20423;-27
2021/07/11 04:14:08;;;;;;;3.03;2.73;;;22.70;87.00;;;;;;5143895;27;20516;-26
2021/07/11 04:16:44;;;;;;;3.20;2.80;;;22.60;87.90;;;;;;5139907;27;20449;-30
2021/07/11 04:19:21;;;;;;;3.30;3.00;;;22.50;88.80;;;;;;5142755;27;20460;-28
2021/07/11 04:21:53;;;;;;;3.10;2.80;;;22.40;89.80;;;;;;5144743;27;20447;-30
2021/07/11 04:24:28;;;;;;;2.77;2.57;;;22.30;90.10;;;;;;5144409;27;20448;-25
2021/07/11 04:27:00;;;;;;;2.60;2.40;;;22.20;90.10;;;;;;5144134;27;20451;-26
2021/07/11 04:29:33;;;;;;;3.10;2.33;;;22.00;90.60;;;;;;5144371;27;20459;-24
2021/07/11 04:32:07;;;;;;;4.10;2.60;;;22.00;91.10;;;;;;5143771;27;20523;-26
2021/07/11 04:34:39;;;;;;;2.53;2.33;;;21.90;90.60;;;;;;5143928;27;20411;-27
2021/07/11 04:37:11;;;;;;;3.03;2.73;;;21.80;90.90;;;;;;5144393;27;20477;-25
2021/07/11 04:39:45;;;;;;;2.83;2.63;;;21.70;91.20;;;;;;5143518;27;20551;-28
2021/07/11 04:42:17;;;;;;;3.70;3.30;;;21.60;92.10;;;;;;5143710;28;20416;-25
2021/07/11 04:44:48;;;;;;;3.10;2.80;;;21.50;92.00;;;;;;5143486;27;20473;-23
2021/07/11 04:47:21;;;;;;;3.30;2.50;;;21.40;92.30;;;;;;5143467;27;20434;-28
2021/07/11 04:49:53;;;;;;;2.53;2.33;;;21.40;92.60;;;;;;5143767;27;20411;-26
2021/07/11 04:52:24;;;;;;;3.47;2.43;;;21.30;92.90;;;;;;5143076;28;20506;-26
2021/07/11 04:54:55;;;;;;;2.73;2.30;;;21.20;93.20;;;;;;5141885;27;20526;-25
2021/07/11 04:57:26;;;;;;;2.17;2.03;;;21.10;93.60;;;;;;5142188;27;20432;-25
2021/07/11 04:59:57;;;;;;;3.40;2.10;;;21.10;93.80;;;;;;5142719;28;20476;-28
2021/07/11 05:02:29;;;;;;;3.13;2.23;;;21.10;94.00;;;;;;5142887;27;20449;-27
2021/07/11 05:05:00;;;;;;;2.50;2.30;;;21.00;94.40;;;;;;5143551;28;20438;-24
2021/07/11 05:07:31;;;;;;;2.70;2.50;;;20.80;95.00;;;;;;5143198;27;20419;-27
2021/07/11 05:10:02;;;;;;;2.17;2.00;;;20.70;95.50;;;;;;5143427;27;21031;-26
2021/07/11 05:12:33;;;;;;;4.97;2.47;;;20.70;96.00;;;;;;5122150;28;20469;-25
2021/07/11 05:15:06;;;;;;;2.27;2.10;;;20.60;96.30;;;;;;5124720;28;20436;-24
2021/07/11 05:17:42;;;;;;;2.33;2.13;;;20.50;97.10;;;;;;5141424;28;20448;-24
2021/07/11 05:20:13;;;;;;;2.40;2.20;;;20.50;97.10;;;;;;5144035;27;20538;-26
2021/07/11 05:22:44;;;;;;;2.07;1.97;;;20.40;97.70;;;;;;5145874;27;20552;-26
2021/07/11 05:25:16;;;;;;;2.13;1.60;;;20.30;97.80;;;;;;5147362;27;20480;-30
2021/07/11 05:27:47;;;;;;;2.70;1.83;;;20.20;98.50;;;;;;5144409;27;20448;-25
2021/07/11 05:30:19;;;;;;;2.30;2.20;;;20.20;98.80;;;;;;5147896;27;20416;-24
2021/07/11 05:32:52;;;;;;;2.37;2.17;;;20.00;99.30;;;;;;5146926;27;20760;-25
2021/07/11 05:35:23;;;;;;;2.73;2.50;;;19.90;99.90;;;;;;5146982;27;20440;-26
2021/07/11 05:37:54;;;;;;;1.93;1.83;;;19.70;99.90;;;;;;5146916;27;20570;-24
2021/07/11 05:40:25;;;;;;;2.50;2.30;;;19.70;99.90;;;;;;5147524;27;20461;-25
2021/07/11 05:42:55;;;;;;;2.40;2.20;;;19.70;99.90;;;;;;5146160;27;20490;-25
2021/07/11 05:45:27;;;;;;;2.30;2.10;;;19.60;99.90;;;;;;5146573;27;20528;-28
2021/07/11 05:48:00;;;;;;;2.73;1.80;;;19.60;99.90;;;;;;5145601;27;20426;-24
2021/07/11 05:50:32;;;;;;;2.80;2.60;;;19.50;99.90;;;;;;5146308;27;20790;-24
2021/07/11 05:53:03;;;;;;;2.10;1.63;;;19.40;99.90;;;;;;5146851;27;20485;-25
2021/07/11 05:55:34;;;;;;;2.37;2.10;;;19.40;99.90;;;;;;5146843;27;20449;-28
2021/07/11 05:58:05;;;;;;;2.40;2.17;;;19.20;99.90;;;;;;5145814;27;20422;-26
2021/07/11 06:00:36;;;;;;;3.07;2.10;;;19.20;99.90;;;;;;5146801;27;20438;-26
2021/07/11 06:03:09;;;;;;;3.53;2.33;;;19.20;99.90;;;;;;5145952;27;20472;-25
2021/07/11 06:05:42;;;;;;;2.80;2.13;;;19.10;99.90;;;;;;5146928;27;20433;-27
2021/07/11 06:08:13;;;;;;;2.77;2.40;;;19.00;99.90;;;;;;5145616;27;20456;-24
2021/07/11 06:10:46;;;;;;;1.87;1.77;;;19.00;99.90;;;;;;5146613;27;20440;-25
2021/07/11 06:13:17;;;;;;;2.97;2.50;;;18.90;99.90;;;;;;5145642;27;20477;-27
2021/07/11 06:15:48;;;;;;;2.70;2.00;;;18.80;99.90;;;;;;5145990;27;20535;-24
2021/07/11 06:18:28;;;;;;;2.33;1.83;;;18.80;99.90;;;;;;5144624;27;20472;-25
2021/07/11 06:20:59;;;;;;;1.97;1.77;;;18.70;99.90;;;;;;5146740;27;20482;-27
2021/07/11 06:23:30;;;;;;;2.03;1.93;;;18.60;99.90;;;;;;5146143;27;20468;-24
2021/07/11 06:26:01;;;;;;;2.23;2.03;;;18.60;99.90;;;;;;5146439;27;20519;-23
2021/07/11 06:28:32;;;;;;;2.33;2.13;;;18.50;99.90;;;;;;5144960;27;20506;-26
2021/07/11 06:31:03;;;;;;;2.70;2.50;;;18.40;99.90;;;;;;5146337;27;20445;-24
2021/07/11 06:33:35;;;;;;;2.33;2.07;;;18.40;99.90;;;;;;5144699;27;20871;-25
2021/07/11 06:36:07;;;;;;;2.63;2.43;;;18.30;99.90;;;;;;5145821;27;20449;-26
2021/07/11 06:38:37;;;;;;;2.90;2.20;;;18.30;99.90;;;;;;5145150;27;20463;-24
2021/07/11 06:41:08;;;;;;;2.40;2.10;;;18.30;99.90;;;;;;5145768;27;20548;-25
2021/07/11 06:43:39;;;;;;;3.47;2.27;;;18.20;99.90;;;;;;5144906;27;20453;-27
2021/07/11 06:46:11;;;;;;;2.50;2.30;;;18.10;99.90;;;;;;5145575;27;20564;-27
2021/07/11 06:48:44;;;;;;;2.17;2.00;;;18.10;99.90;;;;;;5144662;27;20453;-26
2021/07/11 06:51:15;;;;;;;2.67;2.20;;;18.00;99.90;;;;;;5146099;27;20460;-23
2021/07/11 06:53:46;;;;;;;2.60;2.40;;;18.00;99.90;;;;;;5145616;27;20563;-24
2021/07/11 06:56:17;;;;;;;2.47;2.27;;;18.00;99.90;;;;;;5145796;27;20800;-26
2021/07/11 06:58:48;;;;;;;3.43;2.70;;;17.90;99.90;;;;;;5143528;27;20477;-27
2021/07/11 07:01:19;;;;;;;4.93;2.90;;;17.90;99.90;;;;;;5145222;27;20463;-24
2021/07/11 07:03:51;;;;;;;2.20;2.00;;;17.80;99.90;;;;;;5141022;27;20459;-23
2021/07/11 07:06:22;;;;;;;2.87;2.57;;;17.70;99.90;;;;;;5145288;27;20451;-28
2021/07/11 07:08:54;;;;;;;2.50;2.30;;;17.70;99.90;;;;;;5144737;27;20445;-26
2021/07/11 07:11:25;;;;;;;2.57;2.30;;;17.60;99.90;;;;;;5145491;27;20452;-25
2021/07/11 07:13:56;;;;;;;2.60;2.40;;;17.60;99.90;;;;;;5144367;27;20504;-25
2021/07/11 07:16:27;;;;;;;2.60;2.40;;;17.60;99.90;;;;;;5144702;27;20564;-24
2021/07/11 07:19:00;;;;;;;3.10;2.67;;;17.50;99.90;;;;;;5143608;27;20464;-25
2021/07/11 07:21:31;;;;;;;2.50;2.30;;;17.50;99.90;;;;;;5145543;27;20456;-24
2021/07/11 07:24:02;;;;;;;2.80;2.60;;;17.50;99.90;;;;;;5144916;27;20459;-23
2021/07/11 07:26:33;;;;;;;3.20;2.90;;;17.40;99.90;;;;;;5144839;27;20465;-25
2021/07/11 07:29:04;;;;;;;2.93;2.70;;;17.30;99.90;;;;;;5143602;27;20444;-25
2021/07/11 07:31:35;;;;;;;4.80;2.70;;;17.30;99.90;;;;;;5144116;27;20523;-27
2021/07/11 07:34:08;;;;;;;5.67;2.30;;;17.30;99.90;;;;;;5145115;27;20567;-26
2021/07/11 07:36:39;;;;;;;2.73;2.50;;;17.20;99.90;;;;;;5144685;27;20452;-24
2021/07/11 07:39:10;;;;;;;2.77;2.50;;;17.20;99.90;;;;;;5128357;27;20476;-26
2021/07/11 07:41:41;;;;;;;2.90;2.53;;;17.20;99.90;;;;;;5144199;27;20448;-27
2021/07/11 07:44:13;;;;;;;4.33;2.23;;;17.20;99.90;;;;;;5142356;27;20453;-24
2021/07/11 07:47:02;;;;;;;2.97;2.23;;;17.20;99.90;;;;;;5144563;27;20425;-25
2021/07/11 07:49:35;;;;;;;4.03;2.80;;;17.10;99.90;;;;;;5143522;27;20440;-27
2021/07/11 07:52:07;;;;;;;2.73;2.53;;;17.00;99.90;;;;;;5144823;27;20456;-23
2021/07/11 07:54:38;;;;;;;8.40;2.60;;;17.00;99.90;;;;;;5144015;27;20480;-23
2021/07/11 07:57:09;;;;;;;2.83;2.60;;;17.00;99.90;;;;;;5144351;27;20512;-25
2021/07/11 07:59:40;;;;;;;3.20;3.00;;;16.90;99.90;;;;;;5143567;27;20468;-24
2021/07/11 08:02:10;;;;;;;2.97;2.63;;;16.90;99.90;;;;;;5144317;27;20499;-24
2021/07/11 08:04:43;;;;;;;3.80;2.80;;;16.90;99.90;;;;;;5144011;27;20449;-24
2021/07/11 08:07:16;;;;;;;3.30;2.90;;;16.80;99.90;;;;;;5144109;27;20436;-25
2021/07/11 08:09:47;;;;;;;2.87;2.23;;;16.80;99.90;;;;;;5144166;27;20445;-24
2021/07/11 08:12:18;;;;;;;3.20;2.63;;;16.80;99.90;;;;;;5143723;27;20903;-25
2021/07/11 08:14:50;;;;;;;3.93;2.93;;;16.70;99.90;;;;;;5144297;27;20463;-23
2021/07/11 08:17:21;;;;;;;2.97;2.77;;;16.70;99.90;;;;;;5143471;27;20453;-28
2021/07/11 08:19:55;;;;;;;4.93;2.80;;;16.70;99.90;;;;;;5144192;27;20432;-23
2021/07/11 08:22:26;;;;;;;3.83;2.90;;;16.70;99.90;;;;;;5143975;27;20943;-25
2021/07/11 08:24:57;;;;;;;3.77;2.50;;;16.50;99.90;;;;;;5144206;27;20493;-23
2021/07/11 08:27:28;;;;;;;2.90;2.67;;;16.50;99.90;;;;;;5142925;27;20488;-23
2021/07/11 08:29:59;;;;;;;2.60;2.40;;;16.40;99.90;;;;;;5144042;27;20569;-25
2021/07/11 08:32:30;;;;;;;3.20;2.90;;;16.40;99.90;;;;;;5144086;27;20449;-23
2021/07/11 08:35:02;;;;;;;3.37;3.10;;;16.40;99.90;;;;;;5144171;27;20882;-25
2021/07/11 08:37:33;;;;;;;2.80;2.60;;;16.40;99.90;;;;;;5143784;27;20639;-23
2021/07/11 08:40:06;;;;;;;2.60;2.40;;;16.30;99.90;;;;;;5143096;27;20873;-26
2021/07/11 08:42:39;;;;;;;3.03;2.40;;;16.40;99.90;;;;;;5143096;27;20456;-25
2021/07/11 08:45:12;;;;;;;5.83;2.40;;;16.30;99.90;;;;;;5143551;27;20481;-27
2021/07/11 08:47:43;;;;;;;3.10;2.80;;;16.30;99.90;;;;;;5143109;27;20476;-22
2021/07/11 08:50:17;;;;;;;4.67;2.50;;;16.30;99.90;;;;;;5143619;27;20562;-24
2021/07/11 08:52:49;;;;;;;3.60;3.00;;;16.20;99.90;;;;;;5143526;27;20558;-23
2021/07/11 08:55:21;;;;;;;4.17;2.77;;;16.20;99.90;;;;;;5143848;27;20515;-24
2021/07/11 08:57:54;;;;;;;3.23;2.93;;;16.10;99.90;;;;;;5146096;27;20503;-28
2021/07/11 09:00:30;;;;;;;2.60;2.40;;;16.10;99.90;;;;;;5147616;27;20462;-23
2021/07/11 09:03:01;;;;;;;2.97;2.67;;;16.00;99.90;;;;;;5147691;27;20448;-24
2021/07/11 09:05:36;;;;;;;3.90;2.37;;;16.00;99.90;;;;;;5147463;27;20461;-24
2021/07/11 09:08:08;;;;;;;3.23;2.47;;;16.00;99.90;;;;;;5147810;27;20462;-24
2021/07/11 09:10:44;;;;;;;2.83;2.10;;;16.00;99.90;;;;;;5147111;27;20567;-24
2021/07/11 09:13:16;;;;;;;2.77;2.50;;;15.90;99.90;;;;;;5146938;27;20440;-24
2021/07/11 09:15:50;;;;;;;2.80;2.60;;;15.80;99.90;;;;;;5147744;27;20548;-24
2021/07/11 09:18:25;;;;;;;3.07;2.33;;;15.80;99.90;;;;;;5146965;27;20463;-30
2021/07/11 09:21:01;;;;;;;2.77;2.20;;;15.80;99.90;;;;;;5147762;27;20462;-25
2021/07/11 09:23:33;;;;;;;2.60;2.37;;;15.80;99.90;;;;;;5147660;27;20443;-23
2021/07/11 09:26:05;;;;;;;2.50;2.30;;;15.80;99.90;;;;;;5146983;27;20951;-23
2021/07/11 09:28:39;;;;;;;2.50;2.30;;;15.70;99.90;;;;;;5146547;27;20448;-24
2021/07/11 09:31:12;;;;;;;2.03;1.83;;;15.70;99.90;;;;;;5147557;27;20474;-26
2021/07/11 09:33:45;;;;;;;3.00;2.23;;;15.70;99.90;;;;;;5147485;27;20513;-24
2021/07/11 09:36:21;;;;;;;2.50;1.93;;;15.70;99.90;;;;;;5146100;27;20884;-25
2021/07/11 09:38:55;;;;;;;2.77;2.40;;;15.70;99.90;;;;;;5136839;27;20448;-23
2021/07/11 09:41:28;;;;;;;4.43;2.43;;;15.60;99.90;;;;;;5147725;27;20992;-25
2021/07/11 09:44:01;;;;;;;2.03;1.83;;;15.60;99.90;;;;;;5146780;27;20523;-24
2021/07/11 09:46:35;;;;;;;2.53;2.30;;;15.60;99.90;;;;;;5147307;27;20507;-24
2021/07/11 09:49:16;;;;;;;2.37;2.17;;;15.50;99.90;;;;;;5146436;27;20520;-23
2021/07/11 09:51:49;;;;;;;3.03;2.50;;;15.50;99.90;;;;;;5146789;27;20481;-23
2021/07/11 09:54:19;;;;;;;3.13;2.57;;;15.50;99.90;;;;;;5146697;27;20973;-24
2021/07/11 09:56:51;;;;;;;2.00;1.80;;;15.40;99.90;;;;;;5146696;27;20472;-23
2021/07/11 09:59:22;;;;;;;2.63;2.30;;;15.40;99.90;;;;;;5146336;27;20468;-23
2021/07/11 10:01:53;;;;;;;2.10;1.90;;;15.40;99.90;;;;;;5146902;27;20483;-23
2021/07/11 10:04:25;;;;;;;2.27;2.00;;;15.40;99.90;;;;;;5146780;27;20448;-23
2021/07/11 10:06:58;;;;;;;2.53;2.33;;;15.30;99.90;;;;;;5128054;27;20521;-22
2021/07/11 10:09:29;;;;;;;2.73;2.07;;;15.30;99.90;;;;;;5146530;27;20433;-24
2021/07/11 10:12:00;;;;;;;3.53;2.53;;;15.30;99.90;;;;;;5143849;27;20831;-28
2021/07/11 10:14:31;;;;;;;3.40;2.53;;;15.30;99.90;;;;;;5146139;27;20946;-23
2021/07/11 10:17:05;;;;;;;2.93;2.60;;;15.30;99.90;;;;;;5146744;27;20567;-23
2021/07/11 10:19:37;;;;;;;3.23;2.10;;;15.30;99.90;;;;;;5146655;27;20501;-24
2021/07/11 10:22:17;;;;;;;2.43;2.23;;;15.20;99.90;;;;;;5146561;27;20468;-24
2021/07/11 10:24:51;;;;;;;3.17;2.60;;;15.20;99.90;;;;;;5146510;27;20441;-26
2021/07/11 10:27:27;;;;;;;2.67;2.47;;;15.20;99.90;;;;;;5146198;27;20840;-24
2021/07/11 10:29:59;;;;;;;2.20;1.97;;;15.20;99.90;;;;;;5145610;27;20799;-24
2021/07/11 10:32:31;;;;;;;2.47;2.27;;;15.20;99.90;;;;;;5145607;27;20452;-25
2021/07/11 10:35:11;;;;;;;3.23;2.17;;;15.20;99.90;;;;;;5145845;27;20460;-22
2021/07/11 10:37:50;;;;;;;2.40;2.20;;;15.20;99.90;;;;;;5142257;27;20468;-24
2021/07/11 10:40:23;;;;;;;2.47;2.10;;;15.10;99.90;;;;;;5133870;27;20488;-26
2021/07/11 10:42:57;;;;;;;3.60;2.37;;;15.10;99.90;;;;;;5145358;27;20421;-26
2021/07/11 10:45:29;;;;;;;4.33;2.33;;;15.10;99.90;;;;;;5146198;27;20648;-24
2021/07/11 10:48:07;;;;;;;3.00;2.00;;;15.10;99.90;;;;;;5145671;27;20468;-24
2021/07/11 10:50:43;;;;;;;2.67;2.47;;;15.00;99.90;;;;;;5145508;27;20444;-25
2021/07/11 10:53:29;;;;;;;4.20;2.40;;;15.00;99.90;;;;;;5145796;27;20445;-24
2021/07/11 10:56:00;;;;;;;2.97;2.60;;;15.00;99.90;;;;;;5145950;27;20519;-24
2021/07/11 10:58:46;;;;;;;2.80;2.50;;;15.00;99.90;;;;;;5144620;27;20528;-24
2021/07/11 11:01:22;;;;;;;4.60;2.40;;;15.00;99.90;;;;;;5145110;27;20483;-25
2021/07/11 11:03:56;;;;;;;4.47;3.20;;;15.00;99.90;;;;;;5145597;27;20444;-22
2021/07/11 11:06:27;;;;;;;2.50;2.20;;;14.90;99.90;;;;;;5144601;27;20459;-23
2021/07/11 11:09:00;;;;;;;3.53;2.80;;;14.90;99.90;;;;;;5145344;27;20469;-23
2021/07/11 11:11:32;;;;;;;3.17;2.30;;;14.90;99.90;;;;;;5145050;27;20516;-25
2021/07/11 11:14:06;;;;;;;2.73;2.53;;;14.90;99.90;;;;;;5144181;27;20429;-26
2021/07/11 11:16:45;;;;;;;2.87;2.23;;;14.80;99.90;;;;;;5144723;27;20499;-26
2021/07/11 11:19:17;;;;;;;2.70;2.47;;;14.80;99.90;;;;;;5143921;27;20577;-24
2021/07/11 11:21:55;;;;;;;2.77;2.50;;;14.80;99.90;;;;;;5145036;27;20441;-24
2021/07/11 11:24:28;;;;;;;2.40;2.20;;;14.90;99.90;;;;;;5145071;27;20773;-24
2021/07/11 11:27:01;;;;;;;2.80;2.33;;;14.90;99.90;;;;;;5144882;27;20449;-24
2021/07/11 11:29:32;;;;;;;2.60;2.20;;;14.80;99.90;;;;;;5144275;27;20481;-26
2021/07/11 11:32:11;;;;;;;4.57;2.70;;;14.80;99.90;;;;;;5145066;27;20490;-23
2021/07/11 11:34:49;;;;;;;2.37;2.00;;;14.70;99.90;;;;;;5144938;27;20464;-23
2021/07/11 11:37:20;;;;;;;4.63;2.20;;;14.70;99.90;;;;;;5144838;27;20504;-24
2021/07/11 11:39:55;;;;;;;2.80;2.60;;;14.70;99.90;;;;;;5144498;27;20921;-22
2021/07/11 11:42:25;;;;;;;2.30;2.10;;;14.70;99.90;;;;;;5143594;27;20494;-24
2021/07/11 11:45:07;;;;;;;3.17;2.37;;;14.70;99.90;;;;;;5144702;27;20475;-23
2021/07/11 11:47:38;;;;;;;3.60;2.27;;;14.70;99.90;;;;;;5144548;27;20469;-22
2021/07/11 11:50:14;;;;;;;2.67;2.47;;;14.60;99.90;;;;;;5144766;27;20490;-27
2021/07/11 11:52:46;;;;;;;2.70;2.20;;;14.60;99.90;;;;;;5144369;27;20447;-23
2021/07/11 11:55:19;;;;;;;4.43;3.17;;;14.60;99.90;;;;;;5144943;27;20433;-25
2021/07/11 11:57:50;;;;;;;3.80;2.80;;;14.60;99.90;;;;;;5143667;27;20590;-23
2021/07/11 12:00:21;;;;;;;3.00;2.60;;;14.50;99.90;;;;;;5144298;27;20448;-22
2021/07/11 12:03:01;;;;;;;3.50;2.37;;;14.50;99.90;;;;;;5143934;27;20449;-23
2021/07/11 12:05:34;;;;;;;3.00;2.60;;;14.50;99.90;;;;;;5144431;27;20440;-25
2021/07/11 12:08:19;;;;;;;4.80;2.77;;;14.50;99.90;;;;;;5144139;27;20444;-23
2021/07/11 12:10:52;;;;;;;2.70;2.10;;;14.50;99.90;;;;;;5144393;27;20444;-26
2021/07/11 12:13:28;;;;;;;5.93;2.50;;;14.50;99.90;;;;;;5142829;27;20589;-22
2021/07/11 12:16:09;;;;;;;2.93;2.63;;;14.50;99.90;;;;;;5144397;27;20456;-22
2021/07/11 12:18:47;;;;;;;3.13;2.27;;;14.50;99.90;;;;;;5144026;27;20444;-24
2021/07/11 12:21:24;;;;;;;3.00;2.43;;;14.50;99.90;;;;;;5143944;27;20479;-24
2021/07/11 12:23:59;;;;;;;3.03;2.53;;;14.50;99.90;;;;;;5143847;27;20440;-22
2021/07/11 12:26:34;;;;;;;2.63;2.43;;;14.50;99.90;;;;;;5143963;27;20444;-23
2021/07/11 12:29:05;;;;;;;4.50;3.20;;;14.50;99.90;;;;;;5142799;27;20436;-22
2021/07/11 12:31:38;;;;;;;4.50;2.80;;;14.50;99.90;;;;;;5143819;27;20480;-25
2021/07/11 12:34:10;;;;;;;2.90;2.60;;;14.50;99.90;;;;;;5143471;27;20449;-22
2021/07/11 12:36:51;;;;;;;2.93;2.73;;;14.50;99.90;;;;;;5143969;27;20871;-24
2021/07/11 12:39:34;;;;;;;3.13;2.83;;;14.40;99.90;;;;;;5125644;27;20449;-27
2021/07/11 12:42:17;;;;;;;4.80;2.93;;;14.50;99.90;;;;;;5141570;27;20463;-24
2021/07/11 12:44:49;;;;;;;2.30;2.10;;;14.50;99.90;;;;;;5141696;28;20471;-22
2021/07/11 12:47:21;;;;;;;3.27;2.57;;;14.60;99.90;;;;;;5143937;27;20498;-26
2021/07/11 12:49:53;;;;;;;3.80;2.87;;;14.60;99.90;;;;;;5143835;27;20508;-26
2021/07/11 12:52:25;;;;;;;2.47;2.27;;;14.50;99.90;;;;;;5143340;27;20547;-25
2021/07/11 12:54:56;;;;;;;2.80;2.60;;;14.60;99.90;;;;;;5143809;28;20472;-26
2021/07/11 12:57:31;;;;;;;3.10;2.80;;;14.50;99.90;;;;;;5142732;27;20480;-24
2021/07/11 13:00:03;;;;;;;3.67;2.30;;;14.50;99.90;;;;;;5144264;27;21998;-25
2021/07/11 13:02:34;;;;;;;4.97;2.60;;;14.50;99.90;;;;;;5143579;27;20497;-25
2021/07/11 13:05:09;;;;;;;5.10;2.43;;;14.50;99.90;;;;;;5143096;27;20825;-26
2021/07/11 13:07:40;;;;;;;3.33;2.90;;;14.60;99.90;;;;;;5143321;27;20914;-24
2021/07/11 13:10:12;;;;;;;6.20;3.50;;;14.60;99.90;;;;;;5143306;28;20484;-22
2021/07/11 13:12:47;;;;;;;2.53;2.23;;;14.70;99.90;;;;;;5142200;27;20455;-23
2021/07/11 13:15:18;;;;;;;3.53;2.63;;;14.70;99.90;;;;;;5143667;28;20930;-24